createdAt,value
2023-05-22T00:00:09.494Z,13.7
2023-05-22T00:03:10.201Z,13.6
2023-05-22T00:06:09.575Z,13.6
2023-05-22T00:09:09.523Z,13.4
2023-05-22T00:12:09.520Z,13.3
2023-05-22T00:15:09.592Z,13.3
2023-05-22T00:18:09.730Z,13.3
2023-05-22T00:21:09.517Z,13.3
2023-05-22T00:24:09.528Z,13.3
2023-05-22T00:27:09.568Z,13.3
2023-05-22T00:30:09.556Z,13.4
2023-05-22T00:33:10.016Z,13.3
2023-05-22T00:36:09.513Z,13.3
2023-05-22T00:39:09.428Z,13.3
2023-05-22T00:42:09.493Z,13.2
2023-05-22T00:45:09.524Z,13.1
2023-05-22T00:48:09.710Z,13.1
2023-05-22T00:51:09.596Z,13.1
2023-05-22T00:54:09.576Z,13.1
2023-05-22T00:57:09.515Z,13.3
2023-05-22T01:00:09.546Z,13.1
2023-05-22T01:03:10.036Z,13.1
2023-05-22T01:06:09.495Z,13.1
2023-05-22T01:09:09.519Z,13.1
2023-05-22T01:12:09.485Z,13
2023-05-22T01:15:09.517Z,12.9
2023-05-22T01:18:09.715Z,12.8
2023-05-22T01:21:09.465Z,12.6
2023-05-22T01:24:09.481Z,12.6
2023-05-22T01:27:09.557Z,12.4
2023-05-22T01:30:09.491Z,12.5
2023-05-22T01:33:10.184Z,12.4
2023-05-22T01:36:09.483Z,12.4
2023-05-22T01:39:09.542Z,12.4
2023-05-22T01:42:09.538Z,12.4
2023-05-22T01:45:09.600Z,12.3
2023-05-22T01:48:09.902Z,12.4
2023-05-22T01:51:09.447Z,12.4
2023-05-22T01:54:09.545Z,12.5
2023-05-22T01:57:09.494Z,12.6
2023-05-22T02:00:09.512Z,12.5
2023-05-22T02:03:10.406Z,12.5
2023-05-22T02:06:09.525Z,12.5
2023-05-22T02:09:09.567Z,12.5
2023-05-22T02:12:09.529Z,12.4
2023-05-22T02:15:09.845Z,12.4
2023-05-22T02:18:10.079Z,12.4
2023-05-22T02:21:09.454Z,12.5
2023-05-22T02:24:09.574Z,12.6
2023-05-22T02:27:09.531Z,12.6
2023-05-22T02:30:09.531Z,12.7
2023-05-22T02:33:09.844Z,12.6
2023-05-22T02:36:09.548Z,12.8
2023-05-22T02:39:09.483Z,12.8
2023-05-22T02:42:09.518Z,12.8
2023-05-22T02:45:09.590Z,12.7
2023-05-22T02:48:09.996Z,12.6
2023-05-22T02:51:09.514Z,12.5
2023-05-22T02:54:09.534Z,12.4
2023-05-22T02:57:09.534Z,12.4
2023-05-22T03:00:09.537Z,12.4
2023-05-22T03:03:10.164Z,12.4
2023-05-22T03:06:09.643Z,12.3
2023-05-22T03:09:09.463Z,12.3
2023-05-22T03:12:09.531Z,12.3
2023-05-22T03:15:09.583Z,12.4
2023-05-22T03:18:09.991Z,12.5
2023-05-22T03:21:09.560Z,12.6
2023-05-22T03:24:09.546Z,12.6
2023-05-22T03:27:09.705Z,12.6
2023-05-22T03:30:09.539Z,12.6
2023-05-22T03:33:10.082Z,12.6
2023-05-22T03:36:09.536Z,12.6
2023-05-22T03:39:09.705Z,12.6
2023-05-22T03:42:09.737Z,12.6
2023-05-22T03:45:09.618Z,12.6
2023-05-22T03:48:09.990Z,12.5
2023-05-22T03:51:09.566Z,12.5
2023-05-22T03:54:09.576Z,12.5
2023-05-22T03:57:09.638Z,12.6
2023-05-22T04:00:09.711Z,12.6
2023-05-22T04:03:10.401Z,12.7
2023-05-22T04:06:09.597Z,12.8
2023-05-22T04:09:09.609Z,12.8
2023-05-22T04:12:09.540Z,12.9
2023-05-22T04:15:09.591Z,13
2023-05-22T04:18:10.193Z,13.1
2023-05-22T04:21:09.676Z,13.2
2023-05-22T04:24:09.872Z,13.3
2023-05-22T04:27:09.557Z,13.4
2023-05-22T04:30:09.547Z,13.5
2023-05-22T04:33:10.270Z,13.6
2023-05-22T04:36:11.638Z,13.7
2023-05-22T04:39:09.711Z,13.8
2023-05-22T04:42:09.550Z,13.8
2023-05-22T04:45:09.855Z,13.9
2023-05-22T04:48:09.938Z,14
2023-05-22T04:51:09.544Z,14.1
2023-05-22T04:54:09.568Z,14.1
2023-05-22T04:57:09.615Z,14.2
2023-05-22T05:00:09.640Z,14.3
2023-05-22T05:03:10.670Z,14.5
2023-05-22T05:06:09.671Z,14.7
2023-05-22T05:09:09.524Z,14.8
2023-05-22T05:12:09.518Z,14.9
2023-05-22T05:15:09.719Z,15.2
2023-05-22T05:18:09.799Z,15.5
2023-05-22T05:21:09.562Z,16
2023-05-22T05:24:09.619Z,16.8
2023-05-22T05:27:09.610Z,17.8
2023-05-22T05:30:09.874Z,18.6
2023-05-22T05:33:10.060Z,18.9
2023-05-22T05:36:09.786Z,19.4
2023-05-22T05:39:09.543Z,19.3
2023-05-22T05:42:09.603Z,19.1
2023-05-22T05:45:09.559Z,18.7
2023-05-22T05:48:10.072Z,18.4
2023-05-22T05:51:10.143Z,18.4
2023-05-22T05:54:09.589Z,18.4
2023-05-22T05:57:10.230Z,18.4
2023-05-22T06:00:09.867Z,18.6
2023-05-22T06:03:10.519Z,18.8
2023-05-22T06:06:10.237Z,18.8
2023-05-22T06:09:09.621Z,18.9
2023-05-22T06:12:09.480Z,18.9
2023-05-22T06:15:09.742Z,19.2
2023-05-22T06:18:10.001Z,18.9
2023-05-22T06:21:09.616Z,18.8
2023-05-22T06:24:09.535Z,19.1
2023-05-22T06:27:09.694Z,19.4
2023-05-22T06:30:11.485Z,19.6
2023-05-22T06:33:10.274Z,19.3
2023-05-22T06:36:09.531Z,19
2023-05-22T06:39:10.063Z,19
2023-05-22T06:42:09.541Z,19.3
2023-05-22T06:45:09.601Z,19.7
2023-05-22T06:48:09.820Z,19.6
2023-05-22T06:51:09.585Z,19.5
2023-05-22T06:54:09.634Z,19.3
2023-05-22T06:57:09.578Z,19.4
2023-05-22T07:00:10.146Z,19.8
2023-05-22T07:03:09.870Z,20
2023-05-22T07:06:10.129Z,20.1
2023-05-22T07:09:09.548Z,20.4
2023-05-22T07:12:09.463Z,20.9
2023-05-22T07:15:09.512Z,21.1
2023-05-22T07:18:09.850Z,20.8
2023-05-22T07:21:09.637Z,20.4
2023-05-22T07:24:09.724Z,20.4
2023-05-22T07:27:09.548Z,20.4
2023-05-22T07:30:09.557Z,20.9
2023-05-22T07:33:10.045Z,21.8
2023-05-22T07:36:09.920Z,22.2
2023-05-22T07:39:10.035Z,22.9
2023-05-22T07:42:10.952Z,23.2
2023-05-22T07:45:09.633Z,22.8
2023-05-22T07:48:09.796Z,22.3
2023-05-22T07:51:09.556Z,21.6
2023-05-22T07:54:10.038Z,21.2
2023-05-22T07:57:09.515Z,20.9
2023-05-22T08:00:09.746Z,20.7
2023-05-22T08:03:10.483Z,21.2
2023-05-22T08:06:09.644Z,21.6
2023-05-22T08:09:09.566Z,22.1
2023-05-22T08:12:12.321Z,22.4
2023-05-22T08:15:10.538Z,22.7
2023-05-22T08:18:10.765Z,22.9
2023-05-22T08:21:09.560Z,23.4
2023-05-22T08:24:09.872Z,24.2
2023-05-22T08:27:09.810Z,24.2
2023-05-22T08:30:09.821Z,24
2023-05-22T08:33:09.774Z,23.7
2023-05-22T08:36:10.129Z,23.6
2023-05-22T08:39:10.567Z,24.3
2023-05-22T08:42:10.041Z,24.8
2023-05-22T08:45:10.707Z,25.5
2023-05-22T08:48:10.468Z,25.9
2023-05-22T08:51:13.240Z,25.8
2023-05-22T08:54:18.944Z,25.8
2023-05-22T09:00:10.431Z,24.9
2023-05-22T09:03:10.474Z,24.6
2023-05-22T09:06:09.974Z,24.5
2023-05-22T09:09:09.924Z,24.8
2023-05-22T09:12:09.916Z,25.1
2023-05-22T09:15:10.221Z,24.9
2023-05-22T09:18:10.458Z,24.3
2023-05-22T09:24:10.557Z,24.3
2023-05-22T09:27:10.042Z,24.6
2023-05-22T09:30:10.230Z,25.3
2023-05-22T09:33:10.355Z,25.6
2023-05-22T09:36:10.126Z,25.3
2023-05-22T09:39:10.021Z,24.9
2023-05-22T09:42:10.006Z,24.6
2023-05-22T09:45:10.070Z,24.6
2023-05-22T09:48:10.328Z,24.2
2023-05-22T09:51:10.023Z,24.1
2023-05-22T09:54:10.028Z,24.2
2023-05-22T09:57:10.116Z,24.4
2023-05-22T10:00:10.234Z,25.2
2023-05-22T10:03:10.294Z,25.9
2023-05-22T10:06:09.991Z,26.5
2023-05-22T10:09:10.791Z,26.1
2023-05-22T10:12:10.124Z,25.6
2023-05-22T10:15:10.003Z,25.2
2023-05-22T10:18:10.592Z,25.6
2023-05-22T10:21:09.977Z,25.8
2023-05-22T10:24:10.019Z,25.9
2023-05-22T10:27:10.060Z,26.1
2023-05-22T10:30:10.170Z,26.9
2023-05-22T10:33:10.635Z,27.4
2023-05-22T10:36:10.147Z,27.3
2023-05-22T10:39:10.261Z,27.4
2023-05-22T10:42:10.156Z,27.8
2023-05-22T10:45:10.056Z,27.9
2023-05-22T10:48:10.562Z,26.8
2023-05-22T10:51:10.001Z,25.9
2023-05-22T10:54:10.253Z,25.6
2023-05-22T10:57:10.035Z,26.3
2023-05-22T11:00:10.222Z,26.5
2023-05-22T11:03:27.392Z,26.6
2023-05-22T11:06:10.104Z,26.8
2023-05-22T11:09:10.048Z,27.1
2023-05-22T11:12:10.185Z,27.3
2023-05-22T11:15:10.113Z,27.3
2023-05-22T11:18:10.393Z,27.6
2023-05-22T11:21:10.044Z,27.6
2023-05-22T11:24:10.338Z,26.7
2023-05-22T11:27:10.023Z,26.4
2023-05-22T11:30:10.409Z,26
2023-05-22T11:33:10.365Z,25.7
2023-05-22T11:36:09.993Z,25.6
2023-05-22T11:39:09.998Z,25.5
2023-05-22T11:42:10.073Z,25.7
2023-05-22T11:45:10.190Z,25.9
2023-05-22T11:48:10.326Z,26.2
2023-05-22T11:51:09.992Z,26.4
2023-05-22T11:54:10.080Z,27.2
2023-05-22T11:57:10.082Z,28.2
2023-05-22T12:00:10.957Z,28.6
2023-05-22T12:03:10.755Z,28.3
2023-05-22T12:06:10.370Z,28.6
2023-05-22T12:09:10.006Z,28.1
2023-05-22T12:12:10.133Z,28
2023-05-22T12:15:10.206Z,28.3
2023-05-22T12:18:11.640Z,27.9
2023-05-22T12:21:10.093Z,28.3
2023-05-22T12:24:10.141Z,28.1
2023-05-22T12:27:09.921Z,28.5
2023-05-22T12:30:10.425Z,28.6
2023-05-22T12:33:10.347Z,28.2
2023-05-22T12:36:10.133Z,27.6
2023-05-22T12:39:10.024Z,27
2023-05-22T12:42:10.067Z,27.2
2023-05-22T12:45:09.992Z,28
2023-05-22T12:48:10.334Z,28.1
2023-05-22T12:51:10.099Z,27.8
2023-05-22T12:54:10.349Z,27.9
2023-05-22T12:57:10.058Z,28.1
2023-05-22T13:00:10.461Z,28.4
2023-05-22T13:03:10.376Z,27.8
2023-05-22T13:06:10.091Z,27.5
2023-05-22T13:09:10.265Z,27.4
2023-05-22T13:12:10.278Z,27.1
2023-05-22T13:15:10.035Z,26.8
2023-05-22T13:18:10.267Z,26.7
2023-05-22T13:21:09.936Z,26.4
2023-05-22T13:24:10.016Z,26.1
2023-05-22T13:27:10.038Z,26.1
2023-05-22T13:30:10.428Z,26.1
2023-05-22T13:33:10.441Z,25.9
2023-05-22T13:36:10.055Z,25.9
2023-05-22T13:39:09.989Z,25.9
2023-05-22T13:42:10.089Z,26.2
2023-05-22T13:45:10.104Z,26.9
2023-05-22T13:48:10.355Z,27.6
2023-05-22T13:51:09.912Z,27.9
2023-05-22T13:54:09.935Z,27.7
2023-05-22T13:57:10.011Z,27.3
2023-05-22T14:00:10.410Z,26.8
2023-05-22T14:03:10.880Z,26.4
2023-05-22T14:06:10.155Z,26.4
2023-05-22T14:09:10.050Z,26.4
2023-05-22T14:12:10.066Z,26.3
2023-05-22T14:15:10.067Z,26.4
2023-05-22T14:18:10.224Z,26.2
2023-05-22T14:21:13.448Z,26.3
2023-05-22T14:24:10.074Z,26.6
2023-05-22T14:27:09.985Z,27.1
2023-05-22T14:30:10.071Z,27.6
2023-05-22T14:33:10.554Z,27.8
2023-05-22T14:36:10.036Z,28
2023-05-22T14:39:10.164Z,27.8
2023-05-22T14:42:10.057Z,27.5
2023-05-22T14:45:10.217Z,27.4
2023-05-22T14:48:13.049Z,27.3
2023-05-22T14:51:09.992Z,27.4
2023-05-22T14:54:12.660Z,27.4
2023-05-22T14:57:10.003Z,27.6
2023-05-22T15:00:10.168Z,27.4
2023-05-22T15:03:11.096Z,27
2023-05-22T15:06:10.144Z,26.8
2023-05-22T15:09:09.941Z,26.6
2023-05-22T15:12:10.022Z,26.3
2023-05-22T15:15:10.256Z,26.1
2023-05-22T15:18:10.461Z,25.8
2023-05-22T15:21:10.098Z,25.6
2023-05-22T15:24:10.185Z,25.5
2023-05-22T15:27:10.069Z,25.5
2023-05-22T15:30:10.522Z,25.5
2023-05-22T15:33:10.587Z,25.5
2023-05-22T15:36:10.095Z,25.6
2023-05-22T15:39:10.126Z,25.6
2023-05-22T15:42:15.876Z,25.4
2023-05-22T15:45:10.149Z,25.4
2023-05-22T15:48:10.345Z,25.4
2023-05-22T15:51:10.081Z,25.3
2023-05-22T15:54:09.932Z,25.4
2023-05-22T15:57:09.935Z,25.3
2023-05-22T16:00:10.180Z,25.3
2023-05-22T16:03:10.876Z,25.3
2023-05-22T16:06:10.052Z,25.3
2023-05-22T16:09:10.078Z,25.1
2023-05-22T16:12:10.079Z,25
2023-05-22T16:15:13.846Z,24.9
2023-05-22T16:18:10.520Z,24.9
2023-05-22T16:21:10.064Z,24.8
2023-05-22T16:24:10.229Z,24.7
2023-05-22T16:27:10.104Z,24.6
2023-05-22T16:30:10.111Z,24.6
2023-05-22T16:33:10.436Z,24.5
2023-05-22T16:36:10.113Z,24.4
2023-05-22T16:39:10.000Z,24.3
2023-05-22T16:42:10.028Z,24.2
2023-05-22T16:45:10.258Z,24
2023-05-22T16:48:10.576Z,23.8
2023-05-22T16:51:10.217Z,23.7
2023-05-22T16:54:09.932Z,23.6
2023-05-22T16:57:10.341Z,23.4
2023-05-22T17:00:10.792Z,23.3
2023-05-22T17:03:12.187Z,23.1
2023-05-22T17:06:10.136Z,22.9
2023-05-22T17:09:10.266Z,22.8
2023-05-22T17:12:10.041Z,22.6
2023-05-22T17:15:10.018Z,22.5
2023-05-22T17:18:10.400Z,22.4
2023-05-22T17:21:10.237Z,22.2
2023-05-22T17:24:10.538Z,22.2
2023-05-22T17:27:09.978Z,22.2
2023-05-22T17:30:10.281Z,22.2
2023-05-22T17:33:10.426Z,22.3
2023-05-22T17:36:09.970Z,22.3
2023-05-22T17:39:10.049Z,22.4
2023-05-22T17:42:10.063Z,22.4
2023-05-22T17:45:10.005Z,22.3
2023-05-22T17:48:11.315Z,22.2
2023-05-22T17:51:10.169Z,22.2
2023-05-22T17:54:10.018Z,22.1
2023-05-22T17:57:09.966Z,22
2023-05-22T18:00:10.205Z,21.9
2023-05-22T18:03:10.668Z,21.9
2023-05-22T18:06:10.387Z,21.9
2023-05-22T18:09:10.150Z,21.9
2023-05-22T18:12:24.389Z,21.8
2023-05-22T18:15:10.173Z,21.8
2023-05-22T18:18:13.023Z,21.7
2023-05-22T18:21:10.038Z,21.6
2023-05-22T18:24:10.126Z,21.7
2023-05-22T18:27:10.166Z,21.8
2023-05-22T18:30:10.174Z,21.9
2023-05-22T18:33:10.273Z,21.9
2023-05-22T18:36:09.944Z,21.8
2023-05-22T18:39:10.034Z,21.5
2023-05-22T18:42:10.132Z,21.2
2023-05-22T18:45:10.086Z,20.9
2023-05-22T18:48:10.803Z,20.8
2023-05-22T18:51:10.340Z,20.7
2023-05-22T18:54:09.988Z,20.6
2023-05-22T18:57:10.055Z,20.5
2023-05-22T19:00:10.330Z,20.4
2023-05-22T19:03:10.415Z,20.3
2023-05-22T19:06:10.083Z,20.3
2023-05-22T19:09:10.041Z,20.2
2023-05-22T19:12:10.113Z,20
2023-05-22T19:15:10.380Z,19.8
2023-05-22T19:18:10.295Z,19.6
2023-05-22T19:21:09.933Z,19.4
2023-05-22T19:24:09.960Z,19.3
2023-05-22T19:27:10.167Z,19.1
2023-05-22T19:30:10.154Z,18.7
2023-05-22T19:33:13.510Z,18.4
2023-05-22T19:36:10.109Z,18.3
2023-05-22T19:39:09.959Z,18.1
2023-05-22T19:42:10.101Z,17.9
2023-05-22T19:45:09.908Z,17.9
2023-05-22T19:48:10.334Z,17.8
2023-05-22T19:51:09.958Z,17.7
2023-05-22T19:54:09.970Z,17.6
2023-05-22T19:57:09.963Z,17.6
2023-05-22T20:00:10.170Z,17.4
2023-05-22T20:03:10.861Z,17.4
2023-05-22T20:06:10.011Z,17.3
2023-05-22T20:09:09.882Z,17.2
2023-05-22T20:12:09.949Z,17.2
2023-05-22T20:15:10.014Z,17.1
2023-05-22T20:18:10.336Z,17
2023-05-22T20:21:09.953Z,16.9
2023-05-22T20:24:10.178Z,16.9
2023-05-22T20:27:10.059Z,16.9
2023-05-22T20:30:09.960Z,16.9
2023-05-22T20:33:11.070Z,16.9
2023-05-22T20:36:10.029Z,16.8
2023-05-22T20:39:10.068Z,16.9
2023-05-22T20:42:09.887Z,16.8
2023-05-22T20:45:11.620Z,16.9
2023-05-22T20:48:10.256Z,16.8
2023-05-22T20:51:09.940Z,16.8
2023-05-22T20:54:09.913Z,16.7
2023-05-22T20:57:10.023Z,16.6
2023-05-22T21:00:10.152Z,16.6
2023-05-22T21:03:10.360Z,16.6
2023-05-22T21:06:10.027Z,16.6
2023-05-22T21:09:10.253Z,16.5
2023-05-22T21:12:10.073Z,16.5
2023-05-22T21:15:10.033Z,16.5
2023-05-22T21:18:10.352Z,16.4
2023-05-22T21:21:10.105Z,16.4
2023-05-22T21:24:10.022Z,16.4
2023-05-22T21:27:09.867Z,16.4
2023-05-22T21:30:10.029Z,16.4
2023-05-22T21:33:10.342Z,16.4
2023-05-22T21:36:09.929Z,16.4
2023-05-22T21:39:09.916Z,16.4
2023-05-22T21:42:10.041Z,16.3
2023-05-22T21:45:09.998Z,16.3
2023-05-22T21:48:10.273Z,16.3
2023-05-22T21:51:09.927Z,16.3
2023-05-22T21:54:09.951Z,16.3
2023-05-22T21:57:10.190Z,16.3
2023-05-22T22:00:11.191Z,16.3
2023-05-22T22:03:10.675Z,16.3
2023-05-22T22:06:09.855Z,16.3
2023-05-22T22:09:10.007Z,16.3
2023-05-22T22:12:10.043Z,16.2
2023-05-22T22:15:09.946Z,16.2
2023-05-22T22:18:10.473Z,16.1
2023-05-22T22:21:09.889Z,16.1
2023-05-22T22:24:09.974Z,16.1
2023-05-22T22:27:09.950Z,16.1
2023-05-22T22:30:10.113Z,16.1
2023-05-22T22:33:10.410Z,16.1
2023-05-22T22:36:09.976Z,16.2
2023-05-22T22:39:09.949Z,16.2
2023-05-22T22:42:09.912Z,16.1
2023-05-22T22:45:09.930Z,16.1
2023-05-22T22:48:10.307Z,16.1
2023-05-22T22:51:09.970Z,16.1
2023-05-22T22:54:10.595Z,16.1
2023-05-22T22:57:10.012Z,16
2023-05-22T23:00:09.997Z,16
2023-05-22T23:03:10.252Z,15.9
2023-05-22T23:06:09.970Z,15.9
2023-05-22T23:09:10.030Z,15.8
2023-05-22T23:12:09.868Z,15.8
2023-05-22T23:15:09.876Z,15.8
2023-05-22T23:18:10.534Z,15.7
2023-05-22T23:21:09.976Z,15.6
2023-05-22T23:24:09.928Z,15.6
2023-05-22T23:27:09.932Z,15.6
2023-05-22T23:30:10.043Z,15.6
2023-05-22T23:33:10.184Z,15.5
2023-05-22T23:36:10.043Z,15.5
2023-05-22T23:39:10.032Z,15.4
2023-05-22T23:42:09.914Z,15.4
2023-05-22T23:45:09.995Z,15.4
2023-05-22T23:48:10.313Z,15.4
2023-05-22T23:51:09.894Z,15.4
2023-05-22T23:54:10.036Z,15.3
2023-05-22T23:57:10.034Z,15.3
